Time;durP1;ratioP1;P1;durP2;ratioP2;P2;SDS_P1;SDS_P2;PMS_P1;PMS_P2;Temp;Humidity;BMP_temperature;BMP_pressure;BME280_temperature;BME280_humidity;BME280_pressure;Samples;Min_cycle;Max_cycle;Signal;HPM_P1;HPM_P2
2022/11/03 00:01:36;;;;;;;12.05;3.25;;;;;;;10.14;86.64;101476.53;4993633;28;20061;-77
2022/11/03 00:04:03;;;;;;;16.98;3.85;;;;;;;10.11;86.45;101464.59;4993442;28;20466;-77
2022/11/03 00:06:28;;;;;;;13.32;3.20;;;;;;;10.14;86.37;101466.22;4993269;28;20081;-75
2022/11/03 00:08:57;;;;;;;13.45;3.10;;;;;;;10.01;86.60;101440.16;4993050;28;20382;-80
2022/11/03 00:11:23;;;;;;;14.05;3.30;;;;;;;10.04;86.45;101442.63;4993244;28;20164;-75
2022/11/03 00:13:48;;;;;;;15.32;3.40;;;;;;;10.09;86.86;101450.09;4993218;28;20542;-75
2022/11/03 00:16:13;;;;;;;14.55;3.35;;;;;;;10.07;87.07;101453.59;4994885;28;20433;-75
2022/11/03 00:18:39;;;;;;;10.45;3.20;;;;;;;9.95;87.57;101433.59;4996875;28;20050;-75
2022/11/03 00:21:07;;;;;;;15.63;3.20;;;;;;;10.01;87.18;101435.84;4997046;28;20110;-75
2022/11/03 00:23:34;;;;;;;10.73;2.72;;;;;;;9.91;86.86;101414.00;4996731;28;20526;-76
2022/11/03 00:26:07;;;;;;;14.48;3.00;;;;;;;10.09;86.90;101448.38;4996594;28;20030;-75
2022/11/03 00:28:33;;;;;;;14.25;3.50;;;;;;;10.09;86.86;101440.63;4996343;28;20037;-75
2022/11/03 00:31:00;;;;;;;10.70;3.20;;;;;;;9.93;86.79;101408.75;4996644;28;20121;-75
2022/11/03 00:33:30;;;;;;;13.13;3.10;;;;;;;9.97;86.98;101418.88;4996800;28;20037;-76
2022/11/03 00:36:13;;;;;;;16.25;3.38;;;;;;;10.09;86.89;101432.88;4996785;28;20105;-75
2022/11/03 00:38:39;;;;;;;13.43;3.33;;;;;;;10.11;86.91;101425.06;4996367;28;20066;-75
2022/11/03 00:41:05;;;;;;;15.68;3.20;;;;;;;10.10;86.72;101419.06;4996417;28;20423;-77
2022/11/03 00:43:32;;;;;;;15.63;3.05;;;;;;;10.12;86.95;101411.22;4996171;28;20034;-75
2022/11/03 00:45:58;;;;;;;12.70;2.83;;;;;;;10.11;86.60;101401.81;4996483;28;20083;-75
2022/11/03 00:48:30;;;;;;;16.85;3.47;;;;;;;10.06;86.68;101391.75;4996426;28;20032;-75
2022/11/03 00:51:05;;;;;;;15.57;3.63;;;;;;;10.00;86.98;101390.31;4996048;28;20492;-74
2022/11/03 00:53:32;;;;;;;14.60;3.28;;;;;;;10.08;87.49;101395.09;4995756;28;20061;-74
2022/11/03 00:56:00;;;;;;;13.75;2.95;;;;;;;10.07;87.00;101394.25;4996129;28;20077;-74
2022/11/03 00:58:25;;;;;;;14.38;2.92;;;;;;;10.10;87.02;101389.84;4996030;28;20048;-75
2022/11/03 01:00:58;;;;;;;14.40;3.38;;;;;;;10.06;87.17;101373.69;4996298;28;20386;-75
2022/11/03 01:03:23;;;;;;;12.13;3.13;;;;;;;10.18;86.85;101369.63;4996044;28;20023;-75
2022/11/03 01:08:33;;;;;;;10.73;2.85;;;;;;;10.23;86.77;101365.13;4996110;28;20398;-76
2022/11/03 01:13:54;;;;;;;10.77;3.28;;;;;;;10.22;86.43;101350.50;4995953;28;20034;-77
2022/11/03 01:16:20;;;;;;;15.77;2.88;;;;;;;10.34;86.58;101367.94;4995736;28;20034;-75
2022/11/03 01:18:46;;;;;;;12.57;2.80;;;;;;;10.16;86.38;101332.75;4995802;28;20073;-75
2022/11/03 01:21:11;;;;;;;11.57;3.03;;;;;;;10.27;86.25;101339.03;4995699;28;20109;-75
2022/11/03 01:23:36;;;;;;;15.93;2.55;;;;;;;10.34;85.98;101350.72;4995793;28;20054;-73
2022/11/03 01:26:06;;;;;;;11.27;3.08;;;;;;;10.19;86.25;101323.09;4994677;28;20029;-75
2022/11/03 01:28:40;;;;;;;14.43;3.25;;;;;;;10.30;86.22;101349.19;4995250;28;20474;-75
2022/11/03 01:31:08;;;;;;;17.98;3.58;;;;;;;10.28;86.29;101337.28;4994241;28;20031;-75
2022/11/03 01:33:33;;;;;;;9.50;2.50;;;;;;;10.14;86.41;101316.53;4995409;28;20113;-78
2022/11/03 01:35:59;;;;;;;11.98;2.90;;;;;;;10.40;86.27;101338.38;4995376;28;20098;-75
2022/11/03 01:38:25;;;;;;;11.10;3.10;;;;;;;10.39;86.38;101345.28;4995400;28;20045;-77
2022/11/03 01:40:50;;;;;;;14.18;2.78;;;;;;;10.33;86.49;101322.41;4995143;28;20023;-75
2022/11/03 01:43:18;;;;;;;13.98;2.70;;;;;;;10.38;86.50;101330.72;4995268;28;20058;-78
2022/11/03 01:45:44;;;;;;;11.07;2.50;;;;;;;10.39;86.46;101322.06;4995351;28;20022;-79
2022/11/03 01:48:11;;;;;;;13.60;2.60;;;;;;;10.34;86.58;101322.31;4995329;28;20450;-76
2022/11/03 01:50:37;;;;;;;9.55;2.95;;;;;;;10.34;86.70;101316.31;4994930;28;20385;-77
2022/11/03 01:53:02;;;;;;;12.52;2.72;;;;;;;10.33;87.22;101312.91;4995012;28;20030;-74
2022/11/03 01:55:32;;;;;;;12.13;3.03;;;;;;;10.37;87.14;101313.56;4994852;28;20054;-74
2022/11/03 01:58:14;;;;;;;13.05;2.60;;;;;;;10.19;86.62;101278.38;4995158;28;20398;-75
2022/11/03 02:00:42;;;;;;;13.38;2.60;;;;;;;10.43;86.81;101313.25;4995014;28;20054;-75
2022/11/03 02:03:09;;;;;;;11.10;2.53;;;;;;;10.36;87.14;101293.84;4994917;28;20027;-75
2022/11/03 02:05:35;;;;;;;14.43;3.10;;;;;;;10.31;86.82;101286.31;4995149;28;20022;-75
2022/11/03 02:08:36;;;;;;;10.20;2.70;;;;;;;10.40;87.18;101305.63;4994623;28;20105;-74
2022/11/03 02:12:05;;;;;;;12.43;2.97;;;;;;;10.21;87.73;101267.06;4973197;28;20038;-75
2022/11/03 02:13:46;;;;;;;11.45;3.05;;;;;;;10.41;87.66;101294.41;4973062;28;20172;-75
2022/11/03 02:16:13;;;;;;;11.48;2.58;;;;;;;10.25;88.16;101268.59;4973187;28;20142;-74
2022/11/03 02:18:40;;;;;;;10.38;2.58;;;;;;;10.47;87.86;101288.06;4973261;28;20050;-75
2022/11/03 02:21:20;;;;;;;16.15;2.85;;;;;;;10.37;87.67;101264.50;4972950;28;20042;-75
2022/11/03 02:23:57;;;;;;;10.23;3.00;;;;;;;10.52;87.60;101284.34;4973101;28;20125;-74
2022/11/03 02:26:23;;;;;;;11.00;2.92;;;;;;;10.52;87.65;101279.16;4972794;28;20403;-75
2022/11/03 02:28:49;;;;;;;13.88;2.70;;;;;;;10.34;87.51;101241.47;4972939;28;20034;-74
2022/11/03 02:31:43;;;;;;;11.85;2.75;;;;;;;10.58;87.46;101259.91;4972964;28;20046;-74
2022/11/03 02:34:21;;;;;;;14.70;3.42;;;;;;;10.45;87.34;101244.28;4915423;29;20052;-74
2022/11/03 02:36:54;;;;;;;14.05;3.60;;;;;;;10.47;87.39;101245.00;4915253;29;20047;-75
2022/11/03 02:39:23;;;;;;;11.80;3.10;;;;;;;10.46;87.46;101240.78;4915237;29;20468;-75
2022/11/03 02:41:51;;;;;;;15.55;2.97;;;;;;;10.52;87.50;101248.19;4915158;29;20516;-75
2022/11/03 02:44:18;;;;;;;14.68;3.22;;;;;;;10.56;87.55;101247.09;4923521;29;20091;-76
2022/11/03 02:46:47;;;;;;;13.20;2.80;;;;;;;10.58;87.56;101239.25;4953548;29;20476;-74
2022/11/03 02:49:13;;;;;;;12.38;2.67;;;;;;;10.59;87.33;101239.16;4953149;29;20035;-74
2022/11/03 02:51:39;;;;;;;10.77;2.60;;;;;;;10.62;87.26;101239.00;4953440;28;20051;-74
2022/11/03 02:54:18;;;;;;;14.40;3.40;;;;;;;10.50;87.28;101215.59;4953290;29;20134;-74
2022/11/03 02:56:52;;;;;;;12.60;3.33;;;;;;;10.60;87.92;101227.91;4953159;29;20506;-73
2022/11/03 02:59:25;;;;;;;10.85;3.05;;;;;;;10.55;88.12;101223.94;4937669;29;20508;-75
2022/11/03 03:02:07;;;;;;;11.63;2.60;;;;;;;10.55;88.26;101216.19;4952964;29;20368;-78
2022/11/03 03:04:39;;;;;;;12.52;2.80;;;;;;;10.32;88.21;101184.75;4953073;29;20039;-76
2022/11/03 03:07:16;;;;;;;13.57;3.00;;;;;;;10.39;88.45;101192.97;4953211;29;20039;-74
2022/11/03 03:09:55;;;;;;;12.23;2.97;;;;;;;10.47;88.78;101201.13;4959322;28;20132;-76
2022/11/03 03:12:21;;;;;;;11.05;2.55;;;;;;;10.48;88.64;101202.78;4993572;28;20081;-75
2022/11/03 03:14:50;;;;;;;11.10;2.88;;;;;;;10.37;89.67;101174.16;4993774;28;20030;-75
2022/11/03 03:18:03;;;;;;;13.60;2.55;;;;;;;10.48;88.73;101197.63;4993631;28;20030;-74
2022/11/03 03:20:40;;;;;;;8.23;2.58;;;;;;;10.47;88.72;101195.94;4972263;28;20043;-75
2022/11/03 03:23:17;;;;;;;10.80;3.00;;;;;;;10.46;89.16;101189.13;4972225;28;20135;-75
2022/11/03 03:25:49;;;;;;;10.63;2.80;;;;;;;10.50;89.16;101185.44;4972251;28;20042;-79
2022/11/03 03:28:31;;;;;;;15.50;3.33;;;;;;;10.29;89.34;101148.78;4972029;28;20121;-76
2022/11/03 03:31:00;;;;;;;11.18;2.63;;;;;;;10.59;88.95;101177.16;4971951;28;20045;-74
2022/11/03 03:33:27;;;;;;;14.05;2.65;;;;;;;10.59;88.95;101177.16;4972083;28;20026;-79
2022/11/03 03:35:53;;;;;;;14.27;3.25;;;;;;;10.42;89.06;101163.56;4972106;28;20356;-75
2022/11/03 03:38:24;;;;;;;10.43;3.00;;;;;;;10.53;88.97;101174.97;4972141;28;20194;-75
2022/11/03 03:40:51;;;;;;;;;;;;;;;10.51;89.11;101170.78;4972637;28;20031;-74
2022/11/03 03:43:19;;;;;;;17.95;3.85;;;;;;;10.52;89.54;101170.72;4971905;28;20017;-82
2022/11/03 03:45:45;;;;;;;11.18;2.58;;;;;;;10.35;89.58;101150.19;4971984;28;20135;-81
2022/11/03 03:48:11;;;;;;;14.45;2.83;;;;;;;10.46;89.81;101147.81;4972317;28;20027;-81
2022/11/03 03:50:39;;;;;;;10.05;2.45;;;;;;;10.54;89.48;101155.13;4974111;28;20058;-82
2022/11/03 03:53:08;;;;;;;14.27;3.03;;;;;;;10.54;90.23;101161.13;4975836;28;20455;-82
2022/11/03 03:55:37;;;;;;;11.02;3.17;;;;;;;10.53;90.00;101159.47;4977603;28;20062;-82
2022/11/03 03:58:06;;;;;;;15.55;3.17;;;;;;;10.28;89.99;101092.91;4997300;28;20085;-81
2022/11/03 04:00:32;;;;;;;9.75;2.60;;;;;;;10.50;89.92;101130.38;4997078;28;20032;-77
2022/11/03 04:02:58;;;;;;;8.23;2.33;;;;;;;10.56;89.93;101140.38;5015954;28;20483;-80
2022/11/03 04:05:24;;;;;;;10.20;3.05;;;;;;;10.55;90.07;101130.97;5016910;28;20037;-82
2022/11/03 04:07:50;;;;;;;9.52;2.30;;;;;;;10.57;90.26;101129.94;5015373;28;20484;-79
2022/11/03 04:10:17;;;;;;;9.75;3.17;;;;;;;10.59;90.47;101141.00;5016522;28;20034;-79
2022/11/03 04:23:39;;;;;;;13.13;3.33;;;;;;;10.61;90.83;101121.09;5016767;28;20526;-78
2022/11/03 04:26:11;;;;;;;12.25;2.83;;;;;;;10.62;90.74;101127.13;5016390;28;20034;-83
2022/11/03 04:28:37;;;;;;;11.00;2.67;;;;;;;10.60;91.03;101129.75;5015958;28;20018;-83
2022/11/03 04:31:05;;;;;;;14.32;2.88;;;;;;;10.55;91.20;101105.97;5016294;28;20026;-76
2022/11/03 04:33:30;;;;;;;13.02;2.90;;;;;;;10.50;91.25;101094.25;5016511;28;20037;-81
2022/11/03 04:35:58;;;;;;;11.15;2.63;;;;;;;10.67;91.62;101119.91;5016571;28;20469;-81
2022/11/03 04:38:25;;;;;;;12.13;3.03;;;;;;;10.67;91.61;101111.34;5016136;28;20083;-80
2022/11/03 04:40:56;;;;;;;13.05;3.08;;;;;;;10.59;91.43;101094.53;5016221;28;20022;-77
2022/11/03 04:43:29;;;;;;;12.20;2.67;;;;;;;10.67;91.44;101108.75;5016112;28;20034;-75
2022/11/03 04:45:54;;;;;;;10.32;2.53;;;;;;;10.68;91.65;101102.66;5015958;28;20549;-81
2022/11/03 04:48:21;;;;;;;11.63;3.13;;;;;;;10.66;91.82;101101.94;5016025;28;20152;-78
2022/11/03 04:50:50;;;;;;;9.20;2.60;;;;;;;10.58;91.74;101089.47;5015883;28;20030;-81
2022/11/03 04:53:17;;;;;;;10.40;2.55;;;;;;;10.54;92.29;101086.25;5014640;28;20026;-83
2022/11/03 04:55:44;;;;;;;10.95;2.65;;;;;;;10.62;92.69;101101.28;5015703;28;20133;-82
2022/11/03 04:58:15;;;;;;;10.48;2.67;;;;;;;10.62;92.77;101093.53;5015955;28;20075;-83
2022/11/03 05:00:40;;;;;;;13.02;3.20;;;;;;;10.65;92.80;101098.53;5015281;28;20029;-75
2022/11/03 05:03:20;;;;;;;13.80;3.00;;;;;;;10.67;93.12;101090.69;5014940;28;20030;-79
2022/11/03 05:05:46;;;;;;;13.05;3.47;;;;;;;10.66;92.95;101079.50;5015691;28;20103;-78
2022/11/03 05:08:12;;;;;;;16.70;3.10;;;;;;;10.67;93.06;101068.25;5015538;28;20068;-82
2022/11/03 05:10:37;;;;;;;11.23;3.38;;;;;;;10.67;93.18;101072.59;5015308;28;20049;-79
2022/11/03 05:13:15;;;;;;;12.38;2.78;;;;;;;10.58;93.44;101056.72;5015308;28;20033;-75
2022/11/03 05:15:42;;;;;;;9.77;2.70;;;;;;;10.70;93.50;101068.06;5015537;28;20112;-76
2022/11/03 05:18:18;;;;;;;15.07;3.00;;;;;;;10.68;93.32;101066.50;5015515;28;20041;-82
2022/11/03 05:20:49;;;;;;;12.77;3.15;;;;;;;10.54;93.97;101047.50;5015417;28;20108;-77
2022/11/03 05:23:15;;;;;;;13.68;3.05;;;;;;;10.58;93.84;101043.81;5015269;28;20029;-75
2022/11/03 05:26:02;;;;;;;12.40;2.92;;;;;;;10.56;94.20;101037.91;5015129;28;20026;-76
2022/11/03 05:28:43;;;;;;;10.73;2.50;;;;;;;10.68;94.24;101049.25;5014569;28;20034;-78
2022/11/03 05:31:20;;;;;;;12.95;2.90;;;;;;;10.68;94.21;101051.00;5014729;28;20048;-76
2022/11/03 05:33:46;;;;;;;10.23;2.45;;;;;;;10.65;94.36;101040.88;5015053;28;20469;-75
2022/11/03 05:36:15;;;;;;;14.70;3.72;;;;;;;10.55;94.94;101030.25;5015001;28;20030;-76
2022/11/03 05:38:41;;;;;;;11.98;2.97;;;;;;;10.64;95.23;101034.88;5014775;28;20025;-75
2022/11/03 05:41:22;;;;;;;13.80;3.38;;;;;;;10.65;95.27;101035.72;5014993;28;20121;-78
2022/11/03 05:43:57;;;;;;;11.88;2.90;;;;;;;10.56;95.25;101013.84;5014700;28;20409;-81
2022/11/03 05:46:23;;;;;;;10.93;3.10;;;;;;;10.58;95.64;101022.31;5015046;28;20180;-81
2022/11/03 05:48:49;;;;;;;12.98;3.13;;;;;;;10.51;95.78;101005.53;5014814;28;20033;-82
2022/11/03 05:51:21;;;;;;;11.77;3.40;;;;;;;10.62;96.27;101026.41;5014744;28;20081;-75
2022/11/03 05:53:54;;;;;;;13.48;2.88;;;;;;;10.57;96.38;101010.34;5014520;28;20073;-82
2022/11/03 05:56:22;;;;;;;11.55;2.85;;;;;;;10.66;97.00;101022.69;5014727;28;20080;-82
2022/11/03 05:58:49;;;;;;;14.60;3.20;;;;;;;10.70;96.95;101015.59;5014722;28;20370;-82
2022/11/03 06:01:32;;;;;;;10.50;3.47;;;;;;;10.63;96.61;101005.63;5014444;28;20026;-82
2022/11/03 06:04:16;;;;;;;13.27;3.05;;;;;;;10.75;96.46;101008.41;5014739;28;20476;-83
2022/11/03 06:06:41;;;;;;;12.00;3.17;;;;;;;10.73;96.36;101002.50;5014980;28;20030;-83
2022/11/03 06:09:14;;;;;;;11.77;3.17;;;;;;;10.76;96.99;100999.72;5014187;28;20389;-76
2022/11/03 06:11:41;;;;;;;13.07;3.00;;;;;;;10.63;96.80;100979.81;5014339;28;20072;-81
2022/11/03 06:14:24;;;;;;;16.92;3.72;;;;;;;10.71;96.76;100988.84;5014099;28;20053;-78
2022/11/03 06:16:53;;;;;;;16.35;4.20;;;;;;;10.59;96.98;100970.56;5014237;28;20026;-82
2022/11/03 06:19:30;;;;;;;13.82;3.25;;;;;;;10.76;96.89;100989.41;5012901;28;20025;-81
2022/11/03 06:22:23;;;;;;;10.63;2.72;;;;;;;10.78;96.88;100988.38;5014220;28;20174;-73
2022/11/03 06:24:50;;;;;;;10.25;3.25;;;;;;;10.78;97.02;100985.78;5014354;28;20022;-76
2022/11/03 06:27:19;;;;;;;11.95;2.90;;;;;;;10.78;96.86;100984.97;5013922;28;20109;-79
2022/11/03 06:29:49;;;;;;;12.30;3.15;;;;;;;10.60;96.73;100954.16;5013554;28;20034;-78
2022/11/03 06:32:14;;;;;;;13.55;3.20;;;;;;;10.75;96.96;100980.00;5013935;28;20038;-80
2022/11/03 06:34:43;;;;;;;11.02;3.05;;;;;;;10.72;97.16;100975.84;5013763;28;20080;-75
2022/11/03 06:37:19;;;;;;;13.60;3.08;;;;;;;10.62;97.27;100952.34;5013911;28;20022;-78
2022/11/03 06:39:45;;;;;;;11.45;2.92;;;;;;;10.52;97.09;100940.91;5013813;28;20033;-76
2022/11/03 06:42:13;;;;;;;11.75;3.05;;;;;;;10.44;97.25;100935.38;5014018;28;20018;-76
2022/11/03 06:44:47;;;;;;;15.48;3.10;;;;;;;10.57;97.45;100945.78;5013650;28;20029;-74
2022/11/03 06:47:25;;;;;;;8.82;2.90;;;;;;;10.67;96.87;100951.22;5013811;28;20030;-76
2022/11/03 06:49:56;;;;;;;15.00;3.25;;;;;;;10.63;97.21;100937.66;5013715;28;20026;-74
2022/11/03 06:52:32;;;;;;;13.45;3.00;;;;;;;10.78;97.26;100959.13;5013904;28;20029;-75
2022/11/03 06:55:11;;;;;;;12.32;2.88;;;;;;;10.79;96.99;100960.78;5013421;28;20493;-76
2022/11/03 06:57:41;;;;;;;14.82;3.38;;;;;;;10.67;96.80;100930.56;5013725;28;20037;-74
2022/11/03 07:00:29;;;;;;;9.82;2.92;;;;;;;10.84;96.61;100961.34;5013361;28;20128;-76
2022/11/03 07:03:32;;;;;;;12.52;3.58;;;;;;;10.80;96.60;100944.34;5013361;28;20036;-76
2022/11/03 07:06:09;;;;;;;11.23;2.78;;;;;;;10.92;96.15;100948.78;5012520;28;20393;-75
2022/11/03 07:08:40;;;;;;;12.48;2.58;;;;;;;10.87;96.02;100933.56;5013338;28;20030;-75
2022/11/03 07:11:24;;;;;;;14.45;2.67;;;;;;;10.77;95.69;100918.72;5012570;28;20062;-76
2022/11/03 07:13:57;;;;;;;10.45;2.55;;;;;;;10.91;95.61;100936.75;5006302;23;20058;-74
2022/11/03 07:16:32;;;;;;;12.60;3.40;;;;;;;11.06;95.07;100953.91;4993476;28;20396;-79
2022/11/03 07:19:04;;;;;;;12.93;3.33;;;;;;;11.07;94.84;100937.47;4993847;28;20379;-75
2022/11/03 07:21:51;;;;;;;14.80;3.50;;;;;;;11.14;94.72;100943.91;4993732;28;20432;-75
2022/11/03 07:24:24;;;;;;;13.48;3.55;;;;;;;11.15;94.51;100932.66;4992968;28;20026;-76
2022/11/03 07:27:07;;;;;;;13.85;3.00;;;;;;;11.22;94.15;100942.59;4993617;28;20069;-75
2022/11/03 07:29:32;;;;;;;15.00;3.40;;;;;;;11.24;93.75;100931.25;4993708;28;20108;-74
2022/11/03 07:31:59;;;;;;;10.93;2.90;;;;;;;11.14;93.77;100915.47;5014105;23;20144;-75
2022/11/03 07:34:30;;;;;;;12.77;2.83;;;;;;;11.11;93.38;100902.78;4993160;28;20018;-73
2022/11/03 07:36:56;;;;;;;12.88;2.78;;;;;;;11.18;93.16;100908.34;5013047;28;20030;-76
2022/11/03 07:39:22;;;;;;;13.45;3.03;;;;;;;11.16;92.67;100892.94;4994645;28;20091;-74
2022/11/03 07:41:48;;;;;;;13.30;3.22;;;;;;;11.32;92.91;100915.25;5013038;28;20112;-73
2022/11/03 07:44:22;;;;;;;11.73;2.95;;;;;;;11.37;92.42;100914.00;5013146;28;20030;-79
2022/11/03 07:46:49;;;;;;;12.02;2.83;;;;;;;11.39;92.43;100917.31;5008574;28;20061;-73
2022/11/03 07:49:26;;;;;;;10.70;2.88;;;;;;;11.36;92.36;100906.34;5012890;28;20026;-74
2022/11/03 07:51:53;;;;;;;11.55;2.45;;;;;;;11.30;92.06;100893.81;5012930;28;20374;-75
2022/11/03 07:54:29;;;;;;;12.48;2.85;;;;;;;11.45;92.36;100918.69;5012971;28;20025;-76
2022/11/03 07:57:09;;;;;;;17.27;4.10;;;;;;;11.49;91.67;100918.34;4995143;28;20033;-81
2022/11/03 07:59:41;;;;;;;11.85;2.58;;;;;;;11.52;91.75;100921.69;5012874;28;20060;-76
2022/11/03 08:02:12;;;;;;;;;;;;;;;11.55;91.52;100918.91;5013049;28;20029;-76
2022/11/03 08:04:37;;;;;;;10.07;2.63;;;;;;;11.58;90.82;100918.69;5015046;28;19921;-71
2022/11/03 08:07:03;;;;;;;12.48;3.20;;;;;;;11.62;90.75;100922.75;5032490;28;20159;-75
2022/11/03 08:09:28;;;;;;;12.18;3.08;;;;;;;11.63;90.49;100914.88;5032379;28;20071;-80
2022/11/03 08:11:53;;;;;;;14.38;3.20;;;;;;;11.47;90.26;100880.59;5032595;28;20033;-82
2022/11/03 08:14:18;;;;;;;11.30;2.88;;;;;;;11.72;89.64;100906.53;5032785;28;20041;-79
2022/11/03 08:16:44;;;;;;;9.23;2.70;;;;;;;11.76;90.11;100899.38;5032606;28;20060;-82
2022/11/03 08:19:09;;;;;;;11.88;3.00;;;;;;;11.80;88.92;100889.66;5032083;28;20025;-75
2022/11/03 08:21:35;;;;;;;12.20;2.80;;;;;;;11.73;88.81;100874.53;5032469;28;20072;-81
2022/11/03 08:24:00;;;;;;;8.65;2.60;;;;;;;11.83;88.41;100872.19;5032541;28;20404;-80
2022/11/03 08:26:25;;;;;;;10.05;2.78;;;;;;;11.77;88.51;100860.47;5032182;28;20104;-79
2022/11/03 08:28:51;;;;;;;9.23;3.05;;;;;;;11.83;88.01;100853.25;5032521;28;20022;-78
2022/11/03 08:31:16;;;;;;;12.05;2.83;;;;;;;11.85;87.39;100835.88;5032072;28;20253;-81
2022/11/03 08:33:42;;;;;;;8.93;2.65;;;;;;;11.89;86.67;100832.13;5032039;28;20025;-77
2022/11/03 08:36:08;;;;;;;11.65;2.90;;;;;;;11.97;86.53;100825.50;5183916;23;20053;-82
2022/11/03 08:38:33;;;;;;;10.75;2.20;;;;;;;12.15;86.08;100845.88;5035730;28;20056;-76
2022/11/03 08:40:59;;;;;;;10.82;2.53;;;;;;;12.10;86.50;100825.50;5035862;28;20029;-77
2022/11/03 08:43:24;;;;;;;11.13;2.38;;;;;;;12.25;85.83;100829.59;5035976;28;20392;-75
2022/11/03 08:45:52;;;;;;;12.57;3.10;;;;;;;12.19;84.94;100803.28;5035782;28;20064;-77
2022/11/03 08:48:19;;;;;;;10.00;2.80;;;;;;;12.37;84.82;100812.38;5036244;28;20099;-77
2022/11/03 08:50:45;;;;;;;12.07;3.13;;;;;;;12.35;84.53;100784.00;5035524;28;20037;-76
2022/11/03 08:53:10;;;;;;;10.18;2.47;;;;;;;12.48;84.05;100788.28;5035584;28;20025;-81
2022/11/03 08:55:35;;;;;;;9.63;2.38;;;;;;;12.56;84.18;100791.16;5035650;28;20032;-75
2022/11/03 08:58:01;;;;;;;11.20;2.78;;;;;;;12.63;83.51;100788.03;5035616;28;20065;-80
2022/11/03 09:00:26;;;;;;;10.32;2.70;;;;;;;12.69;83.95;100780.75;5017479;28;20062;-81
2022/11/03 09:02:51;;;;;;;12.57;3.08;;;;;;;12.81;83.24;100783.28;5035366;28;20041;-78
2022/11/03 09:05:17;;;;;;;10.35;2.47;;;;;;;12.87;83.41;100784.59;5035347;28;20067;-80
2022/11/03 09:07:42;;;;;;;9.02;2.90;;;;;;;12.86;83.04;100759.59;5027162;28;20128;-75
2022/11/03 09:10:09;;;;;;;10.35;2.67;;;;;;;12.85;82.42;100740.63;5017216;28;20041;-80
2022/11/03 09:12:35;;;;;;;6.45;2.42;;;;;;;13.03;82.87;100743.63;5035476;28;20433;-81
2022/11/03 09:15:00;;;;;;;8.95;2.20;;;;;;;13.11;82.25;100751.69;5035260;28;20044;-79
2022/11/03 09:17:26;;;;;;;13.15;2.90;;;;;;;13.08;81.76;100736.34;5035346;28;20029;-79
2022/11/03 09:19:51;;;;;;;9.98;2.25;;;;;;;12.95;81.55;100696.72;5017031;28;20099;-75
2022/11/03 09:22:16;;;;;;;9.77;2.65;;;;;;;13.28;81.05;100732.31;5034996;28;20053;-81
2022/11/03 09:24:42;;;;;;;9.13;2.30;;;;;;;13.32;81.05;100723.34;5035209;28;20060;-79
2022/11/03 09:27:07;;;;;;;10.32;2.97;;;;;;;13.36;80.22;100721.31;5035332;28;20021;-82
2022/11/03 09:29:32;;;;;;;9.70;2.40;;;;;;;13.31;80.05;100692.34;5034834;28;20461;-81
2022/11/03 09:31:58;;;;;;;8.90;2.65;;;;;;;13.14;80.48;100652.09;5035073;28;20026;-81
2022/11/03 09:34:23;;;;;;;12.60;2.78;;;;;;;13.32;79.51;100684.44;5034664;28;20033;-80
2022/11/03 09:36:49;;;;;;;12.48;2.95;;;;;;;13.28;79.97;100672.66;5016725;28;20110;-74
2022/11/03 09:39:14;;;;;;;9.23;2.35;;;;;;;12.85;79.60;100605.88;5161447;23;20072;-75
2022/11/03 09:41:39;;;;;;;5.93;2.03;;;;;;;12.72;80.15;100579.25;5054765;28;20029;-77
2022/11/03 09:44:05;;;;;;;14.23;2.45;;;;;;;13.35;79.77;100673.81;5054579;28;20060;-75
2022/11/03 09:46:33;;;;;;;11.00;2.50;;;;;;;13.37;79.43;100665.91;5054580;28;20103;-75
2022/11/03 09:49:00;;;;;;;11.27;2.30;;;;;;;13.33;79.23;100654.13;5035904;28;20041;-75
2022/11/03 09:51:26;;;;;;;11.27;3.28;;;;;;;13.35;78.95;100650.47;5054273;28;20033;-73
2022/11/03 09:53:54;;;;;;;9.93;2.60;;;;;;;13.29;79.68;100642.34;5054625;28;20029;-76
2022/11/03 09:56:21;;;;;;;12.70;2.42;;;;;;;13.35;79.22;100647.06;5054454;28;20083;-76
2022/11/03 09:58:47;;;;;;;8.13;2.63;;;;;;;13.25;78.83;100633.97;5054185;28;20032;-79
2022/11/03 10:01:15;;;;;;;9.32;2.40;;;;;;;13.26;78.88;100634.78;5054246;28;20032;-73
2022/11/03 10:03:49;;;;;;;8.90;2.55;;;;;;;13.28;78.86;100635.53;5057395;23;20025;-80
2022/11/03 10:06:16;;;;;;;10.25;2.67;;;;;;;12.99;79.08;100593.66;4989076;28;20019;-74
2022/11/03 10:08:43;;;;;;;10.32;2.75;;;;;;;13.18;78.81;100633.59;4994805;28;20025;-74
2022/11/03 10:11:09;;;;;;;10.13;3.00;;;;;;;13.03;78.96;100602.84;4994878;28;20042;-73
2022/11/03 10:13:40;;;;;;;8.85;2.33;;;;;;;13.02;79.58;100604.59;4994824;28;20034;-73
2022/11/03 10:16:22;;;;;;;7.78;2.50;;;;;;;12.72;79.61;100557.72;5013836;23;20063;-75
2022/11/03 10:19:03;;;;;;;8.35;2.22;;;;;;;11.97;79.19;100436.50;5038126;28;20083;-78
2022/11/03 10:21:42;;;;;;;12.10;2.57;;;;;;;12.76;79.15;100561.69;5054175;28;20037;-77
2022/11/03 10:24:11;;;;;;;10.07;2.20;;;;;;;13.05;79.59;100612.13;5054010;28;20029;-80
2022/11/03 10:26:51;;;;;;;11.38;2.40;;;;;;;13.03;79.41;100606.25;5054057;28;20056;-76
2022/11/03 10:29:27;;;;;;;9.88;2.10;;;;;;;12.93;79.15;100595.75;5053726;28;20380;-78
2022/11/03 10:31:57;;;;;;;8.27;2.75;;;;;;;13.00;79.45;100597.91;5053702;28;20454;-81
2022/11/03 10:34:38;;;;;;;8.75;2.78;;;;;;;13.03;79.87;100605.44;5035706;28;20067;-80
2022/11/03 10:37:23;;;;;;;10.67;2.97;;;;;;;13.06;79.58;100593.03;5053712;28;20103;-80
2022/11/03 10:43:12;;;;;;;9.57;2.35;;;;;;;12.82;79.03;100499.88;5060172;23;20056;-74
2022/11/03 10:46:19;;;;;;;6.60;2.30;;;;;;;12.70;77.98;100453.38;5053613;28;20025;-75
2022/11/03 10:49:01;;;;;;;9.52;2.63;;;;;;;13.55;78.50;100562.47;5053510;28;20430;-75
2022/11/03 10:51:28;;;;;;;9.18;2.30;;;;;;;13.65;77.27;100566.00;5053266;28;20112;-80
2022/11/03 10:53:54;;;;;;;9.80;2.45;;;;;;;13.57;76.80;100538.09;5053495;28;20025;-75
2022/11/03 10:56:19;;;;;;;13.93;2.55;;;;;;;13.82;76.73;100560.28;5053340;28;20017;-74
2022/11/03 10:58:45;;;;;;;9.55;2.20;;;;;;;13.78;75.81;100540.72;5053198;28;20531;-76
2022/11/03 11:01:10;;;;;;;8.20;2.22;;;;;;;13.73;74.80;100514.31;5035541;28;20033;-76
2022/11/03 11:03:41;;;;;;;10.13;2.50;;;;;;;14.05;75.95;100551.44;5053318;28;20075;-77
2022/11/03 11:06:22;;;;;;;9.95;2.63;;;;;;;14.16;75.12;100542.78;5053252;28;20029;-76
2022/11/03 11:08:50;;;;;;;10.18;2.35;;;;;;;14.14;74.37;100541.25;5053198;28;20125;-74
2022/11/03 11:11:17;;;;;;;8.02;2.13;;;;;;;14.16;73.74;100536.75;5052922;28;20052;-75
2022/11/03 11:14:27;;;;;;;10.40;2.28;;;;;;;14.21;74.23;100535.44;5052999;28;20036;-78
2022/11/03 11:16:59;;;;;;;8.13;2.25;;;;;;;14.29;73.33;100535.63;4991536;28;20038;-75
2022/11/03 11:20:01;;;;;;;9.77;2.33;;;;;;;14.38;73.58;100530.59;4991831;28;20038;-76
2022/11/03 11:22:27;;;;;;;12.32;2.92;;;;;;;14.39;71.83;100514.06;4991560;28;20560;-77
2022/11/03 11:24:54;;;;;;;9.70;2.97;;;;;;;14.44;71.43;100515.31;4991919;28;20022;-76
2022/11/03 11:27:31;;;;;;;8.13;2.30;;;;;;;14.46;72.23;100505.66;4991610;28;20545;-75
2022/11/03 11:30:00;;;;;;;7.28;2.28;;;;;;;14.43;70.98;100507.66;4991569;28;20033;-77
2022/11/03 11:32:41;;;;;;;8.57;2.47;;;;;;;14.43;71.31;100499.84;4991508;28;20522;-75
2022/11/03 11:35:14;;;;;;;7.50;2.50;;;;;;;14.38;71.40;100479.47;4991623;28;20038;-79
2022/11/03 11:37:41;;;;;;;9.27;2.47;;;;;;;14.42;71.05;100480.03;4991512;28;20038;-75
2022/11/03 11:40:24;;;;;;;6.43;2.10;;;;;;;14.48;72.17;100463.97;4991555;28;20544;-75
2022/11/03 11:43:01;;;;;;;9.93;2.72;;;;;;;14.55;70.46;100476.31;4991235;28;20433;-76
2022/11/03 11:46:04;;;;;;;4.68;1.60;;;;;;;14.61;70.52;100460.19;4991607;28;20058;-77
2022/11/03 11:48:33;;;;;;;10.68;3.08;;;;;;;14.47;69.73;100423.34;4991539;28;20474;-75
2022/11/03 11:51:00;;;;;;;6.72;2.13;;;;;;;14.70;70.29;100444.75;4991303;28;20448;-75
2022/11/03 11:53:26;;;;;;;7.03;2.67;;;;;;;14.63;69.83;100416.69;5015545;28;20044;-76
2022/11/03 11:56:02;;;;;;;6.15;1.92;;;;;;;14.66;69.10;100410.41;5052735;28;20116;-77